createdAt,value
2023-03-04T00:06:53.417Z,21.2
2023-03-04T00:12:46.505Z,21.2
2023-03-04T00:18:26.213Z,21.2
2023-03-04T00:24:19.460Z,21.2
2023-03-04T00:29:56.574Z,21.2
2023-03-04T00:35:49.826Z,21.2
2023-03-04T00:52:41.295Z,21.2
2023-03-04T01:09:33.182Z,21.2
2023-03-04T01:15:10.495Z,21.2
2023-03-04T02:09:54.413Z,21.1
2023-03-04T02:26:00.633Z,21.1
2023-03-04T02:31:38.205Z,21.1
2023-03-04T02:37:15.481Z,21.1
2023-03-04T02:42:52.785Z,21.1
2023-03-04T02:48:29.508Z,21.1
2023-03-04T02:54:06.089Z,21.1
2023-03-04T03:05:05.881Z,21.1
2023-03-04T03:10:43.728Z,21.1
2023-03-04T03:16:22.733Z,21
2023-03-04T03:21:44.605Z,21
2023-03-04T03:27:21.693Z,21
2023-03-04T03:32:59.159Z,21
2023-03-04T03:38:36.803Z,21
2023-03-04T03:44:13.913Z,21
2023-03-04T03:49:36.526Z,21
2023-03-04T03:54:58.380Z,21
2023-03-04T04:00:36.132Z,21
2023-03-04T04:06:14.355Z,21
2023-03-04T04:11:51.813Z,21
2023-03-04T04:17:29.017Z,20.9
2023-03-04T04:22:54.480Z,21
2023-03-04T04:28:31.981Z,21
2023-03-04T04:39:15.414Z,20.9
2023-03-04T04:44:53.300Z,20.9
2023-03-04T04:50:15.701Z,20.9
2023-03-04T04:56:08.867Z,20.9
2023-03-04T05:01:45.571Z,20.9
2023-03-04T05:07:23.363Z,20.9
2023-03-04T05:13:00.492Z,20.9
2023-03-04T05:18:53.325Z,20.9
2023-03-04T05:24:29.892Z,20.9
2023-03-04T05:30:07.126Z,20.9
2023-03-04T05:35:45.708Z,20.9
2023-03-04T05:41:22.914Z,20.9
2023-03-04T05:46:59.881Z,20.9
2023-03-04T05:52:52.205Z,20.9
2023-03-04T05:58:44.812Z,20.9
2023-03-04T06:04:37.778Z,20.9
2023-03-04T06:10:14.964Z,20.9
2023-03-04T06:16:07.835Z,20.9
2023-03-04T06:21:59.983Z,20.9
2023-03-04T06:27:54.161Z,20.9
2023-03-04T06:33:32.351Z,20.9
2023-03-04T06:39:25.437Z,20.9
2023-03-04T06:45:18.912Z,20.9
2023-03-04T06:50:56.146Z,20.8
2023-03-04T06:56:49.008Z,20.8
2023-03-04T07:02:41.170Z,20.8
2023-03-04T07:08:32.903Z,20.8
2023-03-04T07:14:25.945Z,20.8
2023-03-04T07:20:19.359Z,20.8
2023-03-04T07:26:11.676Z,20.8
2023-03-04T07:32:04.292Z,20.8
2023-03-04T07:37:56.725Z,20.8
2023-03-04T07:43:49.531Z,20.8
2023-03-04T07:49:42.473Z,20.8
2023-03-04T07:55:38.034Z,20.8
2023-03-04T08:01:30.019Z,20.8
2023-03-04T08:07:22.687Z,20.8
2023-03-04T08:13:15.088Z,20.8
2023-03-04T08:19:08.080Z,20.8
2023-03-04T08:24:47.086Z,20.8
2023-03-04T08:30:23.802Z,20.8
2023-03-04T08:36:20.119Z,20.8
2023-03-04T08:41:59.838Z,20.8
2023-03-04T08:47:53.042Z,20.8
2023-03-04T08:53:46.543Z,20.8
2023-03-04T08:59:39.003Z,20.8
2023-03-04T09:05:31.153Z,20.8
2023-03-04T09:11:23.880Z,20.8
2023-03-04T09:17:26.212Z,20.8
2023-03-04T09:23:19.815Z,20.8
2023-03-04T09:29:12.892Z,20.8
2023-03-04T09:35:05.640Z,20.8
2023-03-04T09:40:58.105Z,23.8
2023-03-04T09:46:36.112Z,22.7
2023-03-04T09:52:31.395Z,22.4
2023-03-04T09:58:28.355Z,22.2
2023-03-04T10:04:21.829Z,22.1
2023-03-04T10:10:14.449Z,21
2023-03-04T10:16:07.288Z,26.3
2023-03-04T10:22:00.945Z,27.5
2023-03-04T10:27:56.022Z,27.4
2023-03-04T10:33:34.005Z,27.3
2023-03-04T10:39:26.466Z,28.2
2023-03-04T10:45:19.396Z,29.4
2023-03-04T10:51:12.526Z,30.9
2023-03-04T10:57:04.695Z,30.3
2023-03-04T11:02:44.368Z,29.6
2023-03-04T11:08:46.905Z,29.2
2023-03-04T11:14:39.183Z,29.8
2023-03-04T11:20:31.401Z,30.8
2023-03-04T11:26:40.228Z,31.3
2023-03-04T11:32:33.129Z,31.1
2023-03-04T11:38:26.363Z,31.1
2023-03-04T11:44:20.018Z,30.8
2023-03-04T11:50:29.547Z,30.6
2023-03-04T11:56:22.711Z,30.8
2023-03-04T12:02:16.551Z,31.1
2023-03-04T12:08:10.171Z,31.4
2023-03-04T12:13:49.078Z,32.3
2023-03-04T12:19:43.095Z,32.9
2023-03-04T12:25:35.945Z,33.3
2023-03-04T12:31:16.282Z,32.3
2023-03-04T12:37:11.603Z,31.6
2023-03-04T12:42:48.950Z,30.9
2023-03-04T12:48:26.324Z,30.5
2023-03-04T12:54:21.138Z,29.9
2023-03-04T13:00:14.301Z,29.3
2023-03-04T13:05:52.601Z,28.8
2023-03-04T13:11:30.365Z,28.4
2023-03-04T13:17:27.179Z,28.3
2023-03-04T13:23:05.266Z,28.3
2023-03-04T13:28:59.874Z,28.3
2023-03-04T13:34:55.101Z,28.4
2023-03-04T13:40:50.746Z,28.4
2023-03-04T13:46:28.700Z,27.9
2023-03-04T13:52:34.699Z,27.6
2023-03-04T13:58:31.463Z,27.4
2023-03-04T14:04:25.062Z,27.3
2023-03-04T14:10:03.609Z,27.1
2023-03-04T14:15:55.926Z,26.9
2023-03-04T14:21:49.781Z,26.6
2023-03-04T14:27:42.708Z,26.4
2023-03-04T14:33:30.369Z,26.3
2023-03-04T14:39:22.436Z,26.3
2023-03-04T14:45:14.204Z,26.3
2023-03-04T14:51:19.860Z,26.1
2023-03-04T14:57:11.964Z,25.9
2023-03-04T15:03:04.043Z,25.7
2023-03-04T15:08:58.226Z,25.5
2023-03-04T15:14:50.966Z,25.3
2023-03-04T15:20:44.131Z,25.1
2023-03-04T15:26:21.156Z,24.8
2023-03-04T15:32:15.477Z,24.5
2023-03-04T15:38:08.063Z,24.2
2023-03-04T15:44:00.096Z,23.9
2023-03-04T15:49:40.237Z,23.6
2023-03-04T15:55:19.189Z,23.1
2023-03-04T16:01:11.178Z,22.8
2023-03-04T16:07:04.236Z,22.6
2023-03-04T16:12:56.629Z,22.4
2023-03-04T16:18:49.178Z,22.3
2023-03-04T16:24:41.576Z,22.3
2023-03-04T16:30:34.270Z,22.2
2023-03-04T16:36:13.930Z,22.1
2023-03-04T16:42:06.460Z,22.1
2023-03-04T16:47:44.272Z,22.1
2023-03-04T16:53:38.413Z,22.1
2023-03-04T16:59:31.152Z,22.1
2023-03-04T17:05:26.706Z,22.1
2023-03-04T17:16:41.017Z,22.1
2023-03-04T17:22:32.546Z,22.1
2023-03-04T17:28:25.508Z,22.1
2023-03-04T17:34:02.804Z,22.1
2023-03-04T17:39:55.413Z,22.1
2023-03-04T17:45:32.402Z,22.1
2023-03-04T17:51:09.546Z,22.1
2023-03-04T17:57:01.324Z,22
2023-03-04T18:02:38.335Z,22
2023-03-04T18:08:30.822Z,21.9
2023-03-04T18:14:08.282Z,21.9
2023-03-04T18:19:44.703Z,21.9
2023-03-04T18:25:06.038Z,21.9
2023-03-04T18:30:42.893Z,21.9
2023-03-04T18:42:25.007Z,21.8
2023-03-04T18:48:18.321Z,21.8
2023-03-04T18:54:10.846Z,21.8
2023-03-04T19:00:03.275Z,21.8
2023-03-04T19:05:55.866Z,21.8
2023-03-04T19:11:47.865Z,21.8
2023-03-04T19:17:11.090Z,21.8
2023-03-04T19:22:48.500Z,21.8
2023-03-04T19:28:25.669Z,21.9
2023-03-04T19:34:18.022Z,21.8
2023-03-04T19:39:55.117Z,21.8
2023-03-04T19:45:01.843Z,21.9
2023-03-04T19:56:16.308Z,21.9
2023-03-04T20:01:54.227Z,21.9
2023-03-04T20:07:31.050Z,21.9
2023-03-04T20:12:47.892Z,21.9
2023-03-04T20:18:10.259Z,21.9
2023-03-04T20:29:09.573Z,21.9
2023-03-04T20:34:47.759Z,21.9
2023-03-04T20:40:36.364Z,21.9
2023-03-04T20:46:29.050Z,21.8
2023-03-04T20:52:21.129Z,21.8
2023-03-04T20:57:27.227Z,21.8
2023-03-04T21:02:48.799Z,21.8
2023-03-04T21:08:41.489Z,21.8
2023-03-04T21:14:34.678Z,21.8
2023-03-04T21:20:27.713Z,21.8
2023-03-04T21:26:24.064Z,21.8
2023-03-04T21:32:29.548Z,21.7
2023-03-04T21:38:08.602Z,21.7
2023-03-04T21:43:45.511Z,21.7
2023-03-04T21:49:21.654Z,21.7
2023-03-04T21:55:01.285Z,21.7
2023-03-04T22:06:16.218Z,21.6
2023-03-04T22:12:08.837Z,21.6
2023-03-04T22:17:27.667Z,21.6
2023-03-04T22:23:04.886Z,21.6
2023-03-04T22:28:26.278Z,21.6
2023-03-04T22:39:11.244Z,21.5
2023-03-04T22:44:33.192Z,21.6
2023-03-04T22:49:39.683Z,21.6
2023-03-04T22:55:32.398Z,21.5
2023-03-04T23:01:09.639Z,21.5
2023-03-04T23:07:01.650Z,21.5
2023-03-04T23:12:54.592Z,21.5
2023-03-04T23:18:47.425Z,21.5
2023-03-04T23:24:39.701Z,21.5
2023-03-04T23:30:17.940Z,21.4
2023-03-04T23:36:10.753Z,21.4
2023-03-04T23:42:03.302Z,21.4
2023-03-04T23:47:56.212Z,21.4
2023-03-04T23:53:33.405Z,21.4
2023-03-04T23:59:26.077Z,21.4
